Aérodrome :
LOGIN :

S'inscrire | Disclaimer

   EN    FR    IT 

 










Légende :    VFR   VFR Marginal   IFR   IFR Intensif   IFR Très Intensif
Visi : 
Plafond : 
>= 8 km
>= 3000ft
5 à 8 km
1000 à 3000 ft
1500m à 5 km
500 à 1000 ft
800 à 1500m
200 à 500 ft
< 800m
< 200 ft
Symboles :   Orages  Brouillard  Fortes neiges  Fortes précipitations  Vent > 20 kt
SIGMETs :   Divers  Orages  Givrage  Turbulence  Onde Orograph.  Cendres Volcan.







- Altitude de l'aérodrome : 776 ft
- Code IATA : RMS


ETAR - Ramstein Air Base

DERNIER METAR :
  • 271258Z 18006KT 9999 CLR 30/09 A3006 RMK AO2A SLP175 T02990087 $

METARs EXPIRÉS :
  • 271158Z 21005KT 9999 CLR 29/08 A3006 RMK AO2A SLP174 60000 T02910076 10291 20163 57011 $
  • 271058Z 05005KT 9999 FEW200 28/08 A3007 RMK AO2A SLP178 T02770081 $

TAF AMD TAF ETAR
Valide du 27 à 12h jusqu'au 28 à 16h UTC


271254Z 2712/2816 10012KT 9999 SKC QNH3005INS
BECMG 2718/2719 VRB06KT 9999 SCT050 QNH3007INS
BECMG 2806/2807 18009KT 9999 SCT050 BKN200 QNH3010INS TX30/2715Z TN10/2804Z
Pas de NOTAMs connus pour ce terrain.



MET'MAP, la Météo Aéronautique d'un coup d'oeil ! - Copyright ORBIFLY Décembre 2007 - Disclaimer

ORBIFLY MET'MAP TEAM :

Programmation & Développement : Alexandra Zaïnal
Conception & Développement : Baudouin d'Aumeries
Co-Programmation & Développement : Marc-Olivier Méhu
Soutien technique & logistique : Manuel Goepfert

Contact : metmap@orbifly.com




SOURCES & CREDITS :

   NOAA